sensor_id;sensor_type;location;lat;lon;timestamp;P1;durP1;ratioP1;P2;durP2;ratioP2
28547;SDS011;68292;49.600;8.746;2024-01-25T00:00:03;13.90;;;4.03;;
28547;SDS011;68292;49.600;8.746;2024-01-25T00:02:33;12.93;;;4.43;;
28547;SDS011;68292;49.600;8.746;2024-01-25T00:05:02;11.13;;;3.97;;
28547;SDS011;68292;49.600;8.746;2024-01-25T00:07:32;13.20;;;4.17;;
28547;SDS011;68292;49.600;8.746;2024-01-25T00:10:01;9.63;;;4.10;;
28547;SDS011;68292;49.600;8.746;2024-01-25T00:12:35;11.67;;;4.13;;
28547;SDS011;68292;49.600;8.746;2024-01-25T00:15:05;12.73;;;3.63;;
28547;SDS011;68292;49.600;8.746;2024-01-25T00:17:33;14.10;;;4.30;;
28547;SDS011;68292;49.600;8.746;2024-01-25T00:20:03;11.97;;;3.70;;
28547;SDS011;68292;49.600;8.746;2024-01-25T00:22:33;13.00;;;4.10;;
28547;SDS011;68292;49.600;8.746;2024-01-25T00:25:02;10.70;;;4.27;;
28547;SDS011;68292;49.600;8.746;2024-01-25T00:27:32;9.43;;;3.63;;
28547;SDS011;68292;49.600;8.746;2024-01-25T00:30:02;12.37;;;3.60;;
28547;SDS011;68292;49.600;8.746;2024-01-25T00:32:31;10.93;;;3.77;;
28547;SDS011;68292;49.600;8.746;2024-01-25T00:35:01;9.47;;;3.63;;
28547;SDS011;68292;49.600;8.746;2024-01-25T00:37:31;12.00;;;3.93;;
28547;SDS011;68292;49.600;8.746;2024-01-25T00:40:01;10.73;;;4.00;;
28547;SDS011;68292;49.600;8.746;2024-01-25T00:42:31;12.50;;;3.77;;
28547;SDS011;68292;49.600;8.746;2024-01-25T00:45:06;9.07;;;3.80;;
28547;SDS011;68292;49.600;8.746;2024-01-25T00:47:37;15.13;;;4.10;;
28547;SDS011;68292;49.600;8.746;2024-01-25T00:50:06;11.77;;;3.60;;
28547;SDS011;68292;49.600;8.746;2024-01-25T00:52:36;9.67;;;3.87;;
28547;SDS011;68292;49.600;8.746;2024-01-25T00:55:06;13.70;;;4.10;;
28547;SDS011;68292;49.600;8.746;2024-01-25T00:57:37;9.10;;;3.47;;
28547;SDS011;68292;49.600;8.746;2024-01-25T01:00:08;9.07;;;3.23;;
28547;SDS011;68292;49.600;8.746;2024-01-25T01:02:39;13.67;;;5.47;;
28547;SDS011;68292;49.600;8.746;2024-01-25T01:05:11;12.17;;;4.17;;
28547;SDS011;68292;49.600;8.746;2024-01-25T01:07:42;14.33;;;3.83;;
28547;SDS011;68292;49.600;8.746;2024-01-25T01:10:12;9.83;;;4.20;;
28547;SDS011;68292;49.600;8.746;2024-01-25T01:12:42;11.43;;;4.10;;
28547;SDS011;68292;49.600;8.746;2024-01-25T01:15:12;12.07;;;3.40;;
28547;SDS011;68292;49.600;8.746;2024-01-25T01:17:41;10.00;;;3.93;;
28547;SDS011;68292;49.600;8.746;2024-01-25T01:20:10;12.70;;;4.20;;
28547;SDS011;68292;49.600;8.746;2024-01-25T01:22:39;10.80;;;3.40;;
28547;SDS011;68292;49.600;8.746;2024-01-25T01:25:08;9.57;;;3.90;;
28547;SDS011;68292;49.600;8.746;2024-01-25T01:27:37;10.83;;;3.40;;
28547;SDS011;68292;49.600;8.746;2024-01-25T01:30:06;10.03;;;4.03;;
28547;SDS011;68292;49.600;8.746;2024-01-25T01:32:38;14.57;;;4.73;;
28547;SDS011;68292;49.600;8.746;2024-01-25T01:35:07;10.67;;;4.27;;
28547;SDS011;68292;49.600;8.746;2024-01-25T01:37:36;11.47;;;3.87;;
28547;SDS011;68292;49.600;8.746;2024-01-25T01:40:05;13.63;;;4.30;;
28547;SDS011;68292;49.600;8.746;2024-01-25T01:42:35;12.80;;;4.00;;
28547;SDS011;68292;49.600;8.746;2024-01-25T01:45:05;9.60;;;3.73;;
28547;SDS011;68292;49.600;8.746;2024-01-25T01:47:34;12.77;;;4.00;;
28547;SDS011;68292;49.600;8.746;2024-01-25T01:50:05;13.63;;;4.47;;
28547;SDS011;68292;49.600;8.746;2024-01-25T01:52:35;10.20;;;3.80;;
28547;SDS011;68292;49.600;8.746;2024-01-25T01:55:05;12.17;;;3.70;;
28547;SDS011;68292;49.600;8.746;2024-01-25T01:57:35;10.10;;;3.20;;
28547;SDS011;68292;49.600;8.746;2024-01-25T02:00:06;10.43;;;3.47;;
28547;SDS011;68292;49.600;8.746;2024-01-25T02:02:40;13.87;;;4.27;;
28547;SDS011;68292;49.600;8.746;2024-01-25T02:05:10;13.13;;;4.33;;
28547;SDS011;68292;49.600;8.746;2024-01-25T02:07:40;10.73;;;3.73;;
28547;SDS011;68292;49.600;8.746;2024-01-25T02:10:11;11.17;;;4.23;;
28547;SDS011;68292;49.600;8.746;2024-01-25T02:12:40;11.63;;;3.90;;
28547;SDS011;68292;49.600;8.746;2024-01-25T02:15:08;9.50;;;3.90;;
28547;SDS011;68292;49.600;8.746;2024-01-25T02:17:38;12.00;;;4.07;;
28547;SDS011;68292;49.600;8.746;2024-01-25T02:20:07;11.43;;;4.93;;
28547;SDS011;68292;49.600;8.746;2024-01-25T02:22:40;11.13;;;4.07;;
28547;SDS011;68292;49.600;8.746;2024-01-25T02:25:09;12.10;;;4.47;;
28547;SDS011;68292;49.600;8.746;2024-01-25T02:27:38;9.43;;;3.33;;
28547;SDS011;68292;49.600;8.746;2024-01-25T02:30:07;11.27;;;3.70;;
28547;SDS011;68292;49.600;8.746;2024-01-25T02:32:36;10.30;;;3.83;;
28547;SDS011;68292;49.600;8.746;2024-01-25T02:35:05;10.97;;;4.30;;
28547;SDS011;68292;49.600;8.746;2024-01-25T02:37:35;10.43;;;3.40;;
28547;SDS011;68292;49.600;8.746;2024-01-25T02:40:06;11.00;;;3.87;;
28547;SDS011;68292;49.600;8.746;2024-01-25T02:42:36;12.93;;;4.20;;
28547;SDS011;68292;49.600;8.746;2024-01-25T02:45:04;12.33;;;4.40;;
28547;SDS011;68292;49.600;8.746;2024-01-25T02:47:33;10.53;;;3.93;;
28547;SDS011;68292;49.600;8.746;2024-01-25T02:50:02;10.43;;;3.90;;
28547;SDS011;68292;49.600;8.746;2024-01-25T02:52:31;16.97;;;4.50;;
28547;SDS011;68292;49.600;8.746;2024-01-25T02:55:00;8.83;;;3.63;;
28547;SDS011;68292;49.600;8.746;2024-01-25T02:57:31;9.63;;;3.80;;
28547;SDS011;68292;49.600;8.746;2024-01-25T03:00:00;9.53;;;3.57;;
28547;SDS011;68292;49.600;8.746;2024-01-25T03:02:29;8.80;;;4.17;;
28547;SDS011;68292;49.600;8.746;2024-01-25T03:04:58;8.50;;;4.27;;
28547;SDS011;68292;49.600;8.746;2024-01-25T03:07:27;10.70;;;4.60;;
28547;SDS011;68292;49.600;8.746;2024-01-25T03:09:56;12.70;;;4.43;;
28547;SDS011;68292;49.600;8.746;2024-01-25T03:12:25;11.63;;;4.10;;
28547;SDS011;68292;49.600;8.746;2024-01-25T03:14:55;9.27;;;3.33;;
28547;SDS011;68292;49.600;8.746;2024-01-25T03:17:24;10.50;;;4.37;;
28547;SDS011;68292;49.600;8.746;2024-01-25T03:19:53;14.50;;;4.50;;
28547;SDS011;68292;49.600;8.746;2024-01-25T03:22:22;11.77;;;3.60;;
28547;SDS011;68292;49.600;8.746;2024-01-25T03:24:51;10.77;;;3.60;;
28547;SDS011;68292;49.600;8.746;2024-01-25T03:27:20;8.20;;;3.40;;
28547;SDS011;68292;49.600;8.746;2024-01-25T03:29:48;10.90;;;3.17;;
28547;SDS011;68292;49.600;8.746;2024-01-25T03:32:19;10.27;;;3.50;;
28547;SDS011;68292;49.600;8.746;2024-01-25T03:34:47;7.70;;;3.00;;
28547;SDS011;68292;49.600;8.746;2024-01-25T03:37:16;11.30;;;4.07;;
28547;SDS011;68292;49.600;8.746;2024-01-25T03:39:45;10.07;;;3.67;;
28547;SDS011;68292;49.600;8.746;2024-01-25T03:42:14;13.67;;;4.27;;
28547;SDS011;68292;49.600;8.746;2024-01-25T03:44:43;12.30;;;3.97;;
28547;SDS011;68292;49.600;8.746;2024-01-25T03:47:12;9.53;;;3.40;;
28547;SDS011;68292;49.600;8.746;2024-01-25T03:49:43;13.73;;;4.13;;
28547;SDS011;68292;49.600;8.746;2024-01-25T03:52:12;10.40;;;3.57;;
28547;SDS011;68292;49.600;8.746;2024-01-25T03:54:41;10.00;;;3.83;;
28547;SDS011;68292;49.600;8.746;2024-01-25T03:57:10;9.67;;;3.37;;
28547;SDS011;68292;49.600;8.746;2024-01-25T03:59:39;8.77;;;3.57;;
28547;SDS011;68292;49.600;8.746;2024-01-25T04:02:07;11.07;;;3.93;;
28547;SDS011;68292;49.600;8.746;2024-01-25T04:04:37;9.10;;;3.53;;
28547;SDS011;68292;49.600;8.746;2024-01-25T04:07:08;9.57;;;3.13;;
28547;SDS011;68292;49.600;8.746;2024-01-25T04:09:36;11.70;;;4.13;;
28547;SDS011;68292;49.600;8.746;2024-01-25T04:12:06;11.37;;;4.20;;
28547;SDS011;68292;49.600;8.746;2024-01-25T04:14:36;11.73;;;3.80;;
28547;SDS011;68292;49.600;8.746;2024-01-25T04:17:04;9.17;;;3.60;;
28547;SDS011;68292;49.600;8.746;2024-01-25T04:19:33;7.80;;;3.70;;
28547;SDS011;68292;49.600;8.746;2024-01-25T04:22:04;7.03;;;3.00;;
28547;SDS011;68292;49.600;8.746;2024-01-25T04:24:34;7.70;;;3.23;;
28547;SDS011;68292;49.600;8.746;2024-01-25T04:27:03;9.50;;;4.07;;
28547;SDS011;68292;49.600;8.746;2024-01-25T04:29:32;8.23;;;3.40;;
28547;SDS011;68292;49.600;8.746;2024-01-25T04:32:01;8.57;;;3.37;;
28547;SDS011;68292;49.600;8.746;2024-01-25T04:34:30;12.80;;;3.77;;
28547;SDS011;68292;49.600;8.746;2024-01-25T04:36:59;13.53;;;4.13;;
28547;SDS011;68292;49.600;8.746;2024-01-25T04:39:28;7.80;;;3.20;;
28547;SDS011;68292;49.600;8.746;2024-01-25T04:41:58;10.37;;;3.30;;
28547;SDS011;68292;49.600;8.746;2024-01-25T04:44:27;11.97;;;3.60;;
28547;SDS011;68292;49.600;8.746;2024-01-25T04:46:56;11.10;;;3.40;;
28547;SDS011;68292;49.600;8.746;2024-01-25T04:49:25;12.63;;;2.83;;
28547;SDS011;68292;49.600;8.746;2024-01-25T04:51:54;10.90;;;3.57;;
28547;SDS011;68292;49.600;8.746;2024-01-25T04:54:23;13.73;;;4.23;;
28547;SDS011;68292;49.600;8.746;2024-01-25T04:56:52;8.80;;;3.40;;
28547;SDS011;68292;49.600;8.746;2024-01-25T04:59:22;7.77;;;3.37;;
28547;SDS011;68292;49.600;8.746;2024-01-25T05:01:53;11.90;;;3.23;;
28547;SDS011;68292;49.600;8.746;2024-01-25T05:04:24;10.63;;;3.17;;
28547;SDS011;68292;49.600;8.746;2024-01-25T05:06:54;9.93;;;3.27;;
28547;SDS011;68292;49.600;8.746;2024-01-25T05:09:23;13.27;;;3.50;;
28547;SDS011;68292;49.600;8.746;2024-01-25T05:11:52;8.97;;;3.63;;
28547;SDS011;68292;49.600;8.746;2024-01-25T05:14:26;11.33;;;3.60;;
28547;SDS011;68292;49.600;8.746;2024-01-25T05:16:55;6.87;;;3.30;;
28547;SDS011;68292;49.600;8.746;2024-01-25T05:19:23;11.00;;;3.67;;
28547;SDS011;68292;49.600;8.746;2024-01-25T05:21:53;6.10;;;3.03;;
28547;SDS011;68292;49.600;8.746;2024-01-25T05:24:22;9.43;;;3.87;;
28547;SDS011;68292;49.600;8.746;2024-01-25T05:26:50;11.13;;;3.80;;
28547;SDS011;68292;49.600;8.746;2024-01-25T05:29:19;14.67;;;4.97;;
28547;SDS011;68292;49.600;8.746;2024-01-25T05:31:49;15.87;;;3.80;;
28547;SDS011;68292;49.600;8.746;2024-01-25T05:34:18;10.13;;;3.63;;
28547;SDS011;68292;49.600;8.746;2024-01-25T05:36:47;10.57;;;3.83;;
28547;SDS011;68292;49.600;8.746;2024-01-25T05:39:16;9.00;;;3.77;;
28547;SDS011;68292;49.600;8.746;2024-01-25T05:41:45;11.63;;;3.73;;
28547;SDS011;68292;49.600;8.746;2024-01-25T05:44:14;10.10;;;3.60;;
28547;SDS011;68292;49.600;8.746;2024-01-25T05:46:42;7.40;;;3.57;;
28547;SDS011;68292;49.600;8.746;2024-01-25T05:49:12;13.07;;;3.57;;
28547;SDS011;68292;49.600;8.746;2024-01-25T05:51:41;10.03;;;3.53;;
28547;SDS011;68292;49.600;8.746;2024-01-25T05:54:10;11.60;;;3.77;;
28547;SDS011;68292;49.600;8.746;2024-01-25T05:56:39;9.30;;;3.70;;
28547;SDS011;68292;49.600;8.746;2024-01-25T05:59:08;12.57;;;3.60;;
28547;SDS011;68292;49.600;8.746;2024-01-25T06:01:36;9.00;;;3.47;;
28547;SDS011;68292;49.600;8.746;2024-01-25T06:04:05;9.23;;;4.17;;
28547;SDS011;68292;49.600;8.746;2024-01-25T06:06:35;10.77;;;3.60;;
28547;SDS011;68292;49.600;8.746;2024-01-25T06:09:04;10.07;;;3.70;;
28547;SDS011;68292;49.600;8.746;2024-01-25T06:11:39;8.30;;;3.57;;
28547;SDS011;68292;49.600;8.746;2024-01-25T06:14:08;8.50;;;3.27;;
28547;SDS011;68292;49.600;8.746;2024-01-25T06:16:37;11.90;;;3.73;;
28547;SDS011;68292;49.600;8.746;2024-01-25T06:19:06;11.40;;;4.30;;
28547;SDS011;68292;49.600;8.746;2024-01-25T06:21:37;16.87;;;4.13;;
28547;SDS011;68292;49.600;8.746;2024-01-25T06:24:05;10.83;;;4.07;;
28547;SDS011;68292;49.600;8.746;2024-01-25T06:26:35;9.33;;;3.90;;
28547;SDS011;68292;49.600;8.746;2024-01-25T06:29:03;15.17;;;3.63;;
28547;SDS011;68292;49.600;8.746;2024-01-25T06:31:32;10.40;;;3.93;;
28547;SDS011;68292;49.600;8.746;2024-01-25T06:34:09;9.30;;;3.53;;
28547;SDS011;68292;49.600;8.746;2024-01-25T06:36:40;13.73;;;4.17;;
28547;SDS011;68292;49.600;8.746;2024-01-25T06:39:09;13.47;;;3.90;;
28547;SDS011;68292;49.600;8.746;2024-01-25T06:41:38;12.53;;;4.47;;
28547;SDS011;68292;49.600;8.746;2024-01-25T06:44:06;11.80;;;3.93;;
28547;SDS011;68292;49.600;8.746;2024-01-25T06:46:35;9.10;;;3.57;;
28547;SDS011;68292;49.600;8.746;2024-01-25T06:49:04;13.00;;;4.50;;
28547;SDS011;68292;49.600;8.746;2024-01-25T06:51:33;10.33;;;4.07;;
28547;SDS011;68292;49.600;8.746;2024-01-25T06:54:04;11.53;;;4.67;;
28547;SDS011;68292;49.600;8.746;2024-01-25T06:56:32;15.07;;;4.50;;
28547;SDS011;68292;49.600;8.746;2024-01-25T06:59:02;10.00;;;4.20;;
28547;SDS011;68292;49.600;8.746;2024-01-25T07:01:30;11.50;;;4.10;;
28547;SDS011;68292;49.600;8.746;2024-01-25T07:04:00;15.07;;;4.60;;
28547;SDS011;68292;49.600;8.746;2024-01-25T07:06:30;12.53;;;4.10;;
28547;SDS011;68292;49.600;8.746;2024-01-25T07:08:59;10.33;;;4.60;;
28547;SDS011;68292;49.600;8.746;2024-01-25T07:11:30;11.93;;;3.90;;
28547;SDS011;68292;49.600;8.746;2024-01-25T07:13:59;11.77;;;4.07;;
28547;SDS011;68292;49.600;8.746;2024-01-25T07:16:28;18.03;;;6.57;;
28547;SDS011;68292;49.600;8.746;2024-01-25T07:18:57;10.33;;;5.17;;
28547;SDS011;68292;49.600;8.746;2024-01-25T07:21:26;10.90;;;4.83;;
28547;SDS011;68292;49.600;8.746;2024-01-25T07:23:55;14.87;;;7.37;;
28547;SDS011;68292;49.600;8.746;2024-01-25T07:26:23;13.87;;;6.37;;
28547;SDS011;68292;49.600;8.746;2024-01-25T07:28:53;18.87;;;8.17;;
28547;SDS011;68292;49.600;8.746;2024-01-25T07:31:25;13.43;;;5.40;;
28547;SDS011;68292;49.600;8.746;2024-01-25T07:33:55;13.60;;;4.90;;
28547;SDS011;68292;49.600;8.746;2024-01-25T07:36:23;11.17;;;5.10;;
28547;SDS011;68292;49.600;8.746;2024-01-25T07:38:52;10.43;;;4.33;;
28547;SDS011;68292;49.600;8.746;2024-01-25T07:41:21;13.87;;;4.23;;
28547;SDS011;68292;49.600;8.746;2024-01-25T07:43:49;13.50;;;4.40;;
28547;SDS011;68292;49.600;8.746;2024-01-25T07:46:23;10.47;;;4.93;;
28547;SDS011;68292;49.600;8.746;2024-01-25T07:48:52;11.47;;;4.17;;
28547;SDS011;68292;49.600;8.746;2024-01-25T07:51:21;12.10;;;4.17;;
28547;SDS011;68292;49.600;8.746;2024-01-25T07:53:55;15.83;;;4.87;;
28547;SDS011;68292;49.600;8.746;2024-01-25T07:56:23;10.67;;;4.57;;
28547;SDS011;68292;49.600;8.746;2024-01-25T07:58:52;11.90;;;4.33;;
28547;SDS011;68292;49.600;8.746;2024-01-25T08:01:21;13.30;;;4.80;;
28547;SDS011;68292;49.600;8.746;2024-01-25T08:03:51;14.40;;;4.67;;
28547;SDS011;68292;49.600;8.746;2024-01-25T08:06:20;9.00;;;3.80;;
28547;SDS011;68292;49.600;8.746;2024-01-25T08:08:49;14.97;;;4.87;;
28547;SDS011;68292;49.600;8.746;2024-01-25T08:11:18;16.93;;;5.40;;
28547;SDS011;68292;49.600;8.746;2024-01-25T08:13:47;8.70;;;4.40;;
28547;SDS011;68292;49.600;8.746;2024-01-25T08:16:17;14.07;;;5.57;;
28547;SDS011;68292;49.600;8.746;2024-01-25T08:18:48;12.77;;;5.60;;
28547;SDS011;68292;49.600;8.746;2024-01-25T08:21:17;11.47;;;5.53;;
28547;SDS011;68292;49.600;8.746;2024-01-25T08:23:46;19.50;;;5.70;;
28547;SDS011;68292;49.600;8.746;2024-01-25T08:26:15;15.37;;;6.63;;
28547;SDS011;68292;49.600;8.746;2024-01-25T08:28:44;16.47;;;7.63;;
28547;SDS011;68292;49.600;8.746;2024-01-25T08:31:13;15.03;;;8.03;;
28547;SDS011;68292;49.600;8.746;2024-01-25T08:33:42;17.90;;;8.93;;
28547;SDS011;68292;49.600;8.746;2024-01-25T08:36:18;17.50;;;10.23;;
28547;SDS011;68292;49.600;8.746;2024-01-25T08:38:47;14.17;;;7.30;;
28547;SDS011;68292;49.600;8.746;2024-01-25T08:41:15;19.73;;;7.50;;
28547;SDS011;68292;49.600;8.746;2024-01-25T08:43:44;16.07;;;5.50;;
28547;SDS011;68292;49.600;8.746;2024-01-25T08:46:13;14.83;;;6.40;;
28547;SDS011;68292;49.600;8.746;2024-01-25T08:48:43;13.13;;;5.60;;
28547;SDS011;68292;49.600;8.746;2024-01-25T08:51:12;12.53;;;6.70;;
28547;SDS011;68292;49.600;8.746;2024-01-25T08:53:42;16.10;;;7.13;;
28547;SDS011;68292;49.600;8.746;2024-01-25T08:56:11;18.60;;;6.70;;
28547;SDS011;68292;49.600;8.746;2024-01-25T08:58:40;12.53;;;5.57;;
28547;SDS011;68292;49.600;8.746;2024-01-25T09:01:09;16.00;;;6.00;;
28547;SDS011;68292;49.600;8.746;2024-01-25T09:03:38;12.37;;;6.30;;
28547;SDS011;68292;49.600;8.746;2024-01-25T09:06:07;15.10;;;7.33;;
28547;SDS011;68292;49.600;8.746;2024-01-25T09:08:36;16.17;;;5.80;;
28547;SDS011;68292;49.600;8.746;2024-01-25T09:11:06;16.93;;;6.33;;
28547;SDS011;68292;49.600;8.746;2024-01-25T09:13:35;12.80;;;5.43;;
28547;SDS011;68292;49.600;8.746;2024-01-25T09:16:12;18.67;;;6.10;;
28547;SDS011;68292;49.600;8.746;2024-01-25T09:18:41;10.70;;;4.30;;
28547;SDS011;68292;49.600;8.746;2024-01-25T09:21:10;10.57;;;4.57;;
28547;SDS011;68292;49.600;8.746;2024-01-25T09:23:39;10.60;;;4.57;;
28547;SDS011;68292;49.600;8.746;2024-01-25T09:26:09;14.93;;;4.77;;
28547;SDS011;68292;49.600;8.746;2024-01-25T09:28:38;14.00;;;5.20;;
28547;SDS011;68292;49.600;8.746;2024-01-25T09:31:07;14.57;;;5.37;;
28547;SDS011;68292;49.600;8.746;2024-01-25T09:33:36;10.47;;;5.13;;
28547;SDS011;68292;49.600;8.746;2024-01-25T09:36:06;12.97;;;5.23;;
28547;SDS011;68292;49.600;8.746;2024-01-25T09:38:35;16.53;;;5.87;;
28547;SDS011;68292;49.600;8.746;2024-01-25T09:41:04;16.03;;;4.60;;
28547;SDS011;68292;49.600;8.746;2024-01-25T09:43:34;11.57;;;4.20;;
28547;SDS011;68292;49.600;8.746;2024-01-25T09:46:04;10.17;;;4.83;;
28547;SDS011;68292;49.600;8.746;2024-01-25T09:48:35;15.83;;;5.10;;
28547;SDS011;68292;49.600;8.746;2024-01-25T09:51:04;11.53;;;4.60;;
28547;SDS011;68292;49.600;8.746;2024-01-25T09:53:33;10.07;;;4.17;;
28547;SDS011;68292;49.600;8.746;2024-01-25T09:56:03;10.63;;;4.97;;
28547;SDS011;68292;49.600;8.746;2024-01-25T09:58:38;12.77;;;5.13;;
28547;SDS011;68292;49.600;8.746;2024-01-25T10:01:09;13.27;;;5.13;;
28547;SDS011;68292;49.600;8.746;2024-01-25T10:03:41;12.30;;;5.50;;
28547;SDS011;68292;49.600;8.746;2024-01-25T10:06:11;15.47;;;5.37;;
28547;SDS011;68292;49.600;8.746;2024-01-25T10:08:41;16.33;;;5.50;;
28547;SDS011;68292;49.600;8.746;2024-01-25T10:11:10;11.37;;;4.90;;
28547;SDS011;68292;49.600;8.746;2024-01-25T10:13:43;15.70;;;5.40;;
28547;SDS011;68292;49.600;8.746;2024-01-25T10:16:14;11.50;;;5.17;;
28547;SDS011;68292;49.600;8.746;2024-01-25T10:18:45;17.50;;;5.63;;
28547;SDS011;68292;49.600;8.746;2024-01-25T10:21:17;11.93;;;4.83;;
28547;SDS011;68292;49.600;8.746;2024-01-25T10:23:46;11.97;;;5.17;;
28547;SDS011;68292;49.600;8.746;2024-01-25T10:26:18;14.87;;;5.20;;
28547;SDS011;68292;49.600;8.746;2024-01-25T10:28:52;16.93;;;5.03;;
28547;SDS011;68292;49.600;8.746;2024-01-25T10:31:27;9.50;;;4.57;;
28547;SDS011;68292;49.600;8.746;2024-01-25T10:33:58;15.47;;;5.63;;
28547;SDS011;68292;49.600;8.746;2024-01-25T10:36:28;14.43;;;5.40;;
28547;SDS011;68292;49.600;8.746;2024-01-25T10:38:59;13.87;;;4.37;;
28547;SDS011;68292;49.600;8.746;2024-01-25T10:41:31;14.23;;;4.77;;
28547;SDS011;68292;49.600;8.746;2024-01-25T10:44:03;12.33;;;4.87;;
28547;SDS011;68292;49.600;8.746;2024-01-25T10:46:34;15.20;;;5.07;;
28547;SDS011;68292;49.600;8.746;2024-01-25T10:49:05;15.00;;;5.57;;
28547;SDS011;68292;49.600;8.746;2024-01-25T10:51:36;12.33;;;5.07;;
28547;SDS011;68292;49.600;8.746;2024-01-25T10:54:05;16.83;;;6.37;;
28547;SDS011;68292;49.600;8.746;2024-01-25T10:56:35;13.73;;;4.87;;
28547;SDS011;68292;49.600;8.746;2024-01-25T10:59:05;15.70;;;5.70;;
28547;SDS011;68292;49.600;8.746;2024-01-25T11:01:35;11.80;;;5.13;;
28547;SDS011;68292;49.600;8.746;2024-01-25T11:04:11;13.47;;;5.90;;
28547;SDS011;68292;49.600;8.746;2024-01-25T11:06:41;12.43;;;4.67;;
28547;SDS011;68292;49.600;8.746;2024-01-25T11:09:16;11.97;;;4.43;;
28547;SDS011;68292;49.600;8.746;2024-01-25T11:11:47;13.43;;;4.77;;
28547;SDS011;68292;49.600;8.746;2024-01-25T11:14:24;10.07;;;4.30;;
28547;SDS011;68292;49.600;8.746;2024-01-25T11:16:53;13.77;;;4.83;;
28547;SDS011;68292;49.600;8.746;2024-01-25T11:19:22;10.67;;;4.60;;
28547;SDS011;68292;49.600;8.746;2024-01-25T11:21:52;9.50;;;4.27;;
28547;SDS011;68292;49.600;8.746;2024-01-25T11:24:22;13.80;;;4.60;;
28547;SDS011;68292;49.600;8.746;2024-01-25T11:26:53;11.77;;;5.00;;
28547;SDS011;68292;49.600;8.746;2024-01-25T11:29:24;14.93;;;5.10;;
28547;SDS011;68292;49.600;8.746;2024-01-25T11:31:54;12.77;;;5.00;;
28547;SDS011;68292;49.600;8.746;2024-01-25T11:34:23;13.00;;;4.50;;
28547;SDS011;68292;49.600;8.746;2024-01-25T11:36:52;10.43;;;4.57;;
28547;SDS011;68292;49.600;8.746;2024-01-25T11:39:21;12.20;;;4.40;;
28547;SDS011;68292;49.600;8.746;2024-01-25T11:41:50;12.33;;;4.13;;
28547;SDS011;68292;49.600;8.746;2024-01-25T11:44:20;12.83;;;4.87;;
28547;SDS011;68292;49.600;8.746;2024-01-25T11:46:54;15.93;;;5.43;;
28547;SDS011;68292;49.600;8.746;2024-01-25T11:49:24;14.80;;;5.73;;
28547;SDS011;68292;49.600;8.746;2024-01-25T11:51:53;9.43;;;4.37;;
28547;SDS011;68292;49.600;8.746;2024-01-25T11:54:23;11.63;;;4.80;;
28547;SDS011;68292;49.600;8.746;2024-01-25T11:56:52;16.20;;;4.67;;
28547;SDS011;68292;49.600;8.746;2024-01-25T11:59:22;10.97;;;4.77;;
28547;SDS011;68292;49.600;8.746;2024-01-25T12:01:51;12.83;;;4.63;;
28547;SDS011;68292;49.600;8.746;2024-01-25T12:04:21;17.37;;;4.10;;
28547;SDS011;68292;49.600;8.746;2024-01-25T12:06:52;13.13;;;4.23;;
28547;SDS011;68292;49.600;8.746;2024-01-25T12:09:21;11.80;;;4.30;;
28547;SDS011;68292;49.600;8.746;2024-01-25T12:11:50;16.27;;;4.73;;
28547;SDS011;68292;49.600;8.746;2024-01-25T12:14:20;11.67;;;4.60;;
28547;SDS011;68292;49.600;8.746;2024-01-25T12:16:49;11.17;;;4.40;;
28547;SDS011;68292;49.600;8.746;2024-01-25T12:19:18;11.13;;;4.20;;
28547;SDS011;68292;49.600;8.746;2024-01-25T12:21:50;12.90;;;4.23;;
28547;SDS011;68292;49.600;8.746;2024-01-25T12:24:19;12.23;;;4.63;;
28547;SDS011;68292;49.600;8.746;2024-01-25T12:26:47;12.43;;;4.17;;
28547;SDS011;68292;49.600;8.746;2024-01-25T12:29:17;9.43;;;3.83;;
28547;SDS011;68292;49.600;8.746;2024-01-25T12:31:45;10.23;;;3.87;;
28547;SDS011;68292;49.600;8.746;2024-01-25T12:34:14;17.43;;;4.47;;
28547;SDS011;68292;49.600;8.746;2024-01-25T12:36:45;10.80;;;4.30;;
28547;SDS011;68292;49.600;8.746;2024-01-25T12:39:14;13.60;;;4.43;;
28547;SDS011;68292;49.600;8.746;2024-01-25T12:41:47;13.37;;;4.67;;
28547;SDS011;68292;49.600;8.746;2024-01-25T12:44:17;9.63;;;4.73;;
28547;SDS011;68292;49.600;8.746;2024-01-25T12:46:46;11.10;;;4.13;;
28547;SDS011;68292;49.600;8.746;2024-01-25T12:49:15;11.37;;;3.47;;
28547;SDS011;68292;49.600;8.746;2024-01-25T12:51:46;13.73;;;5.17;;
28547;SDS011;68292;49.600;8.746;2024-01-25T12:54:19;8.93;;;4.00;;
28547;SDS011;68292;49.600;8.746;2024-01-25T12:56:49;10.83;;;3.87;;
28547;SDS011;68292;49.600;8.746;2024-01-25T12:59:18;15.83;;;4.80;;
28547;SDS011;68292;49.600;8.746;2024-01-25T13:01:47;11.43;;;4.33;;
28547;SDS011;68292;49.600;8.746;2024-01-25T13:04:16;10.43;;;4.10;;
28547;SDS011;68292;49.600;8.746;2024-01-25T13:06:46;12.03;;;4.40;;
28547;SDS011;68292;49.600;8.746;2024-01-25T13:09:15;13.97;;;4.33;;
28547;SDS011;68292;49.600;8.746;2024-01-25T13:11:44;10.77;;;4.53;;
28547;SDS011;68292;49.600;8.746;2024-01-25T13:14:12;13.03;;;5.07;;
28547;SDS011;68292;49.600;8.746;2024-01-25T13:16:41;14.10;;;4.90;;
28547;SDS011;68292;49.600;8.746;2024-01-25T13:19:10;16.20;;;4.57;;
28547;SDS011;68292;49.600;8.746;2024-01-25T13:21:40;12.03;;;4.67;;
28547;SDS011;68292;49.600;8.746;2024-01-25T13:24:10;15.40;;;4.60;;
28547;SDS011;68292;49.600;8.746;2024-01-25T13:26:39;10.17;;;4.37;;
28547;SDS011;68292;49.600;8.746;2024-01-25T13:29:08;13.07;;;5.17;;
28547;SDS011;68292;49.600;8.746;2024-01-25T13:31:39;11.30;;;5.07;;
28547;SDS011;68292;49.600;8.746;2024-01-25T13:34:08;12.53;;;4.70;;
28547;SDS011;68292;49.600;8.746;2024-01-25T13:36:37;14.33;;;4.90;;
28547;SDS011;68292;49.600;8.746;2024-01-25T13:39:06;13.03;;;3.90;;
28547;SDS011;68292;49.600;8.746;2024-01-25T13:41:38;8.37;;;4.10;;
28547;SDS011;68292;49.600;8.746;2024-01-25T13:44:06;9.20;;;4.60;;
28547;SDS011;68292;49.600;8.746;2024-01-25T13:46:35;10.70;;;4.10;;
28547;SDS011;68292;49.600;8.746;2024-01-25T13:49:04;10.87;;;4.03;;
28547;SDS011;68292;49.600;8.746;2024-01-25T13:51:33;11.77;;;3.97;;
28547;SDS011;68292;49.600;8.746;2024-01-25T13:54:02;12.67;;;4.73;;
28547;SDS011;68292;49.600;8.746;2024-01-25T13:56:31;9.27;;;4.17;;
28547;SDS011;68292;49.600;8.746;2024-01-25T13:59:01;13.23;;;4.50;;
28547;SDS011;68292;49.600;8.746;2024-01-25T14:01:30;10.33;;;4.43;;
28547;SDS011;68292;49.600;8.746;2024-01-25T14:03:59;11.10;;;4.23;;
28547;SDS011;68292;49.600;8.746;2024-01-25T14:06:28;12.77;;;4.03;;
28547;SDS011;68292;49.600;8.746;2024-01-25T14:08:57;11.40;;;4.33;;
28547;SDS011;68292;49.600;8.746;2024-01-25T14:11:26;13.53;;;4.40;;
28547;SDS011;68292;49.600;8.746;2024-01-25T14:13:55;7.63;;;3.67;;
28547;SDS011;68292;49.600;8.746;2024-01-25T14:16:26;12.73;;;4.33;;
28547;SDS011;68292;49.600;8.746;2024-01-25T14:18:54;11.07;;;4.00;;
28547;SDS011;68292;49.600;8.746;2024-01-25T14:21:24;11.50;;;4.17;;
28547;SDS011;68292;49.600;8.746;2024-01-25T14:23:53;12.10;;;4.00;;
28547;SDS011;68292;49.600;8.746;2024-01-25T14:26:22;11.23;;;4.27;;
28547;SDS011;68292;49.600;8.746;2024-01-25T14:28:51;13.93;;;4.67;;
28547;SDS011;68292;49.600;8.746;2024-01-25T14:31:20;7.33;;;4.07;;
28547;SDS011;68292;49.600;8.746;2024-01-25T14:33:50;9.37;;;4.60;;
28547;SDS011;68292;49.600;8.746;2024-01-25T14:36:19;10.97;;;5.27;;
28547;SDS011;68292;49.600;8.746;2024-01-25T14:38:48;9.67;;;4.97;;
28547;SDS011;68292;49.600;8.746;2024-01-25T14:41:17;12.03;;;5.03;;
28547;SDS011;68292;49.600;8.746;2024-01-25T14:43:46;10.77;;;4.37;;
28547;SDS011;68292;49.600;8.746;2024-01-25T14:46:15;12.63;;;4.00;;
28547;SDS011;68292;49.600;8.746;2024-01-25T14:48:44;10.67;;;4.10;;